sensor_id;sensor_type;location;lat;lon;timestamp;P1;durP1;ratioP1;P2;durP2;ratioP2
45642;SDS011;31358;46.008;11.144;2024-03-08T00:00:18;11.25;;;6.20;;
45642;SDS011;31358;46.008;11.144;2024-03-08T00:02:47;12.35;;;5.97;;
45642;SDS011;31358;46.008;11.144;2024-03-08T00:05:15;11.02;;;5.82;;
45642;SDS011;31358;46.008;11.144;2024-03-08T00:07:43;10.65;;;6.20;;
45642;SDS011;31358;46.008;11.144;2024-03-08T00:10:09;13.13;;;5.88;;
45642;SDS011;31358;46.008;11.144;2024-03-08T00:12:36;8.98;;;5.38;;
45642;SDS011;31358;46.008;11.144;2024-03-08T00:15:03;8.70;;;5.57;;
45642;SDS011;31358;46.008;11.144;2024-03-08T00:17:29;7.80;;;4.65;;
45642;SDS011;31358;46.008;11.144;2024-03-08T00:19:54;8.52;;;4.95;;
45642;SDS011;31358;46.008;11.144;2024-03-08T00:22:20;7.82;;;4.35;;
45642;SDS011;31358;46.008;11.144;2024-03-08T00:24:47;6.95;;;3.65;;
45642;SDS011;31358;46.008;11.144;2024-03-08T00:27:15;5.85;;;3.17;;
45642;SDS011;31358;46.008;11.144;2024-03-08T00:29:41;7.70;;;3.42;;
45642;SDS011;31358;46.008;11.144;2024-03-08T00:32:07;6.25;;;3.38;;
45642;SDS011;31358;46.008;11.144;2024-03-08T00:34:36;5.80;;;2.70;;
45642;SDS011;31358;46.008;11.144;2024-03-08T00:37:02;5.53;;;3.50;;
45642;SDS011;31358;46.008;11.144;2024-03-08T00:39:28;4.47;;;2.80;;
45642;SDS011;31358;46.008;11.144;2024-03-08T00:41:54;5.32;;;2.63;;
45642;SDS011;31358;46.008;11.144;2024-03-08T00:44:20;5.05;;;2.50;;
45642;SDS011;31358;46.008;11.144;2024-03-08T00:46:46;4.68;;;2.60;;
45642;SDS011;31358;46.008;11.144;2024-03-08T00:49:11;4.07;;;2.28;;
45642;SDS011;31358;46.008;11.144;2024-03-08T00:51:37;4.35;;;2.00;;
45642;SDS011;31358;46.008;11.144;2024-03-08T00:54:03;4.35;;;2.45;;
45642;SDS011;31358;46.008;11.144;2024-03-08T00:56:29;5.22;;;2.38;;
45642;SDS011;31358;46.008;11.144;2024-03-08T00:58:54;4.22;;;2.10;;
45642;SDS011;31358;46.008;11.144;2024-03-08T01:01:20;5.45;;;2.40;;
45642;SDS011;31358;46.008;11.144;2024-03-08T01:03:46;6.78;;;2.05;;
45642;SDS011;31358;46.008;11.144;2024-03-08T01:06:11;4.50;;;2.25;;
45642;SDS011;31358;46.008;11.144;2024-03-08T01:08:37;4.20;;;1.90;;
45642;SDS011;31358;46.008;11.144;2024-03-08T01:11:07;3.95;;;1.63;;
45642;SDS011;31358;46.008;11.144;2024-03-08T01:13:34;5.15;;;2.33;;
45642;SDS011;31358;46.008;11.144;2024-03-08T01:16:00;5.78;;;2.67;;
45642;SDS011;31358;46.008;11.144;2024-03-08T01:18:27;4.10;;;2.08;;
45642;SDS011;31358;46.008;11.144;2024-03-08T01:20:53;4.05;;;2.20;;
45642;SDS011;31358;46.008;11.144;2024-03-08T01:23:19;4.20;;;1.90;;
45642;SDS011;31358;46.008;11.144;2024-03-08T01:25:44;4.43;;;1.83;;
45642;SDS011;31358;46.008;11.144;2024-03-08T01:28:10;4.80;;;2.50;;
45642;SDS011;31358;46.008;11.144;2024-03-08T01:30:35;5.10;;;2.47;;
45642;SDS011;31358;46.008;11.144;2024-03-08T01:33:02;3.70;;;2.40;;
45642;SDS011;31358;46.008;11.144;2024-03-08T01:35:28;5.57;;;2.95;;
45642;SDS011;31358;46.008;11.144;2024-03-08T01:37:54;5.18;;;2.50;;
45642;SDS011;31358;46.008;11.144;2024-03-08T01:40:20;6.13;;;2.80;;
45642;SDS011;31358;46.008;11.144;2024-03-08T01:42:45;5.22;;;2.58;;
45642;SDS011;31358;46.008;11.144;2024-03-08T01:45:13;5.18;;;2.90;;
45642;SDS011;31358;46.008;11.144;2024-03-08T01:47:38;5.45;;;3.08;;
45642;SDS011;31358;46.008;11.144;2024-03-08T01:50:04;7.45;;;3.03;;
45642;SDS011;31358;46.008;11.144;2024-03-08T01:52:31;4.32;;;2.45;;
45642;SDS011;31358;46.008;11.144;2024-03-08T01:55:01;4.22;;;2.22;;
45642;SDS011;31358;46.008;11.144;2024-03-08T01:57:28;4.82;;;2.20;;
45642;SDS011;31358;46.008;11.144;2024-03-08T01:59:56;7.85;;;3.40;;
45642;SDS011;31358;46.008;11.144;2024-03-08T02:02:22;5.65;;;3.08;;
45642;SDS011;31358;46.008;11.144;2024-03-08T02:04:48;7.65;;;3.10;;
45642;SDS011;31358;46.008;11.144;2024-03-08T02:07:17;6.47;;;3.10;;
45642;SDS011;31358;46.008;11.144;2024-03-08T02:09:43;4.95;;;2.58;;
45642;SDS011;31358;46.008;11.144;2024-03-08T02:12:09;6.63;;;2.90;;
45642;SDS011;31358;46.008;11.144;2024-03-08T02:14:35;6.30;;;2.60;;
45642;SDS011;31358;46.008;11.144;2024-03-08T02:17:01;6.10;;;3.15;;
45642;SDS011;31358;46.008;11.144;2024-03-08T02:19:27;5.30;;;2.85;;
45642;SDS011;31358;46.008;11.144;2024-03-08T02:21:53;6.07;;;3.22;;
45642;SDS011;31358;46.008;11.144;2024-03-08T02:24:19;6.07;;;3.10;;
45642;SDS011;31358;46.008;11.144;2024-03-08T02:26:44;6.03;;;3.38;;
45642;SDS011;31358;46.008;11.144;2024-03-08T02:29:11;4.47;;;2.58;;
45642;SDS011;31358;46.008;11.144;2024-03-08T02:31:37;5.10;;;2.45;;
45642;SDS011;31358;46.008;11.144;2024-03-08T02:34:04;4.97;;;2.38;;
45642;SDS011;31358;46.008;11.144;2024-03-08T02:36:30;5.35;;;2.58;;
45642;SDS011;31358;46.008;11.144;2024-03-08T02:38:59;7.30;;;3.00;;
45642;SDS011;31358;46.008;11.144;2024-03-08T02:41:27;5.93;;;2.80;;
45642;SDS011;31358;46.008;11.144;2024-03-08T02:43:52;5.40;;;2.63;;
45642;SDS011;31358;46.008;11.144;2024-03-08T02:46:18;4.57;;;2.45;;
45642;SDS011;31358;46.008;11.144;2024-03-08T02:48:44;5.05;;;2.63;;
45642;SDS011;31358;46.008;11.144;2024-03-08T02:51:09;5.00;;;2.80;;
45642;SDS011;31358;46.008;11.144;2024-03-08T02:53:35;6.18;;;2.63;;
45642;SDS011;31358;46.008;11.144;2024-03-08T02:56:02;5.65;;;3.00;;
45642;SDS011;31358;46.008;11.144;2024-03-08T02:58:29;5.25;;;2.67;;
45642;SDS011;31358;46.008;11.144;2024-03-08T03:00:55;5.72;;;2.78;;
45642;SDS011;31358;46.008;11.144;2024-03-08T03:03:22;4.80;;;2.78;;
45642;SDS011;31358;46.008;11.144;2024-03-08T03:05:48;5.25;;;2.72;;
45642;SDS011;31358;46.008;11.144;2024-03-08T03:08:14;6.20;;;2.70;;
45642;SDS011;31358;46.008;11.144;2024-03-08T03:10:41;4.75;;;2.05;;
45642;SDS011;31358;46.008;11.144;2024-03-08T03:13:07;6.00;;;2.67;;
45642;SDS011;31358;46.008;11.144;2024-03-08T03:15:33;4.18;;;2.10;;
45642;SDS011;31358;46.008;11.144;2024-03-08T03:17:59;4.80;;;2.15;;
45642;SDS011;31358;46.008;11.144;2024-03-08T03:20:25;4.70;;;1.95;;
45642;SDS011;31358;46.008;11.144;2024-03-08T03:22:56;5.90;;;2.80;;
45642;SDS011;31358;46.008;11.144;2024-03-08T03:25:22;9.43;;;2.60;;
45642;SDS011;31358;46.008;11.144;2024-03-08T03:27:53;7.53;;;2.15;;
45642;SDS011;31358;46.008;11.144;2024-03-08T03:30:22;7.28;;;3.28;;
45642;SDS011;31358;46.008;11.144;2024-03-08T03:32:51;7.78;;;4.20;;
45642;SDS011;31358;46.008;11.144;2024-03-08T03:35:18;8.27;;;4.68;;
45642;SDS011;31358;46.008;11.144;2024-03-08T03:37:45;9.38;;;4.45;;
45642;SDS011;31358;46.008;11.144;2024-03-08T03:40:16;11.13;;;5.50;;
45642;SDS011;31358;46.008;11.144;2024-03-08T03:42:44;9.75;;;4.65;;
45642;SDS011;31358;46.008;11.144;2024-03-08T03:45:10;6.75;;;3.55;;
45642;SDS011;31358;46.008;11.144;2024-03-08T03:47:36;7.07;;;4.32;;
45642;SDS011;31358;46.008;11.144;2024-03-08T03:50:03;7.07;;;2.88;;
45642;SDS011;31358;46.008;11.144;2024-03-08T03:52:30;4.93;;;2.92;;
45642;SDS011;31358;46.008;11.144;2024-03-08T03:54:56;4.82;;;2.08;;
45642;SDS011;31358;46.008;11.144;2024-03-08T03:57:22;4.85;;;2.53;;
45642;SDS011;31358;46.008;11.144;2024-03-08T03:59:48;4.40;;;1.73;;
45642;SDS011;31358;46.008;11.144;2024-03-08T04:02:16;3.95;;;1.95;;
45642;SDS011;31358;46.008;11.144;2024-03-08T04:04:42;4.88;;;1.77;;
45642;SDS011;31358;46.008;11.144;2024-03-08T04:07:09;4.57;;;2.08;;
45642;SDS011;31358;46.008;11.144;2024-03-08T04:09:35;3.83;;;2.30;;
45642;SDS011;31358;46.008;11.144;2024-03-08T04:12:00;3.33;;;1.75;;
45642;SDS011;31358;46.008;11.144;2024-03-08T04:14:26;6.57;;;2.50;;
45642;SDS011;31358;46.008;11.144;2024-03-08T04:16:52;3.60;;;1.80;;
45642;SDS011;31358;46.008;11.144;2024-03-08T04:19:17;4.20;;;2.15;;
45642;SDS011;31358;46.008;11.144;2024-03-08T04:21:44;4.30;;;2.08;;
45642;SDS011;31358;46.008;11.144;2024-03-08T04:24:09;5.30;;;1.73;;
45642;SDS011;31358;46.008;11.144;2024-03-08T04:26:35;4.68;;;1.48;;
45642;SDS011;31358;46.008;11.144;2024-03-08T04:29:01;3.20;;;1.50;;
45642;SDS011;31358;46.008;11.144;2024-03-08T04:31:27;4.07;;;1.90;;
45642;SDS011;31358;46.008;11.144;2024-03-08T04:33:52;4.43;;;2.17;;
45642;SDS011;31358;46.008;11.144;2024-03-08T04:36:18;4.35;;;2.00;;
45642;SDS011;31358;46.008;11.144;2024-03-08T04:38:45;5.53;;;2.00;;
45642;SDS011;31358;46.008;11.144;2024-03-08T04:41:10;4.25;;;2.30;;
45642;SDS011;31358;46.008;11.144;2024-03-08T04:43:36;3.97;;;2.00;;
45642;SDS011;31358;46.008;11.144;2024-03-08T04:46:02;4.32;;;2.05;;
45642;SDS011;31358;46.008;11.144;2024-03-08T04:48:28;3.92;;;1.80;;
45642;SDS011;31358;46.008;11.144;2024-03-08T04:50:54;6.15;;;3.25;;
45642;SDS011;31358;46.008;11.144;2024-03-08T04:53:20;6.43;;;2.35;;
45642;SDS011;31358;46.008;11.144;2024-03-08T04:55:46;5.05;;;2.28;;
45642;SDS011;31358;46.008;11.144;2024-03-08T04:58:11;5.85;;;2.13;;
45642;SDS011;31358;46.008;11.144;2024-03-08T05:00:37;4.50;;;2.03;;
45642;SDS011;31358;46.008;11.144;2024-03-08T05:03:03;4.13;;;2.03;;
45642;SDS011;31358;46.008;11.144;2024-03-08T05:05:29;6.50;;;2.60;;
45642;SDS011;31358;46.008;11.144;2024-03-08T05:07:56;4.95;;;2.85;;
45642;SDS011;31358;46.008;11.144;2024-03-08T05:10:21;5.88;;;2.67;;
45642;SDS011;31358;46.008;11.144;2024-03-08T05:12:47;3.92;;;2.38;;
45642;SDS011;31358;46.008;11.144;2024-03-08T05:15:13;11.05;;;4.68;;
45642;SDS011;31358;46.008;11.144;2024-03-08T05:17:39;6.43;;;3.67;;
45642;SDS011;31358;46.008;11.144;2024-03-08T05:20:05;5.00;;;2.75;;
45642;SDS011;31358;46.008;11.144;2024-03-08T05:22:33;5.55;;;2.83;;
45642;SDS011;31358;46.008;11.144;2024-03-08T05:24:59;4.50;;;2.42;;
45642;SDS011;31358;46.008;11.144;2024-03-08T05:27:24;5.30;;;2.08;;
45642;SDS011;31358;46.008;11.144;2024-03-08T05:29:50;5.45;;;2.53;;
45642;SDS011;31358;46.008;11.144;2024-03-08T05:32:16;4.82;;;2.42;;
45642;SDS011;31358;46.008;11.144;2024-03-08T05:34:41;6.22;;;2.97;;
45642;SDS011;31358;46.008;11.144;2024-03-08T05:37:07;4.95;;;2.35;;
45642;SDS011;31358;46.008;11.144;2024-03-08T05:39:33;5.05;;;2.65;;
45642;SDS011;31358;46.008;11.144;2024-03-08T05:41:59;5.40;;;2.20;;
45642;SDS011;31358;46.008;11.144;2024-03-08T05:44:24;3.25;;;1.70;;
45642;SDS011;31358;46.008;11.144;2024-03-08T05:46:53;4.28;;;2.30;;
45642;SDS011;31358;46.008;11.144;2024-03-08T05:49:19;4.45;;;2.05;;
45642;SDS011;31358;46.008;11.144;2024-03-08T05:51:46;4.53;;;2.53;;
45642;SDS011;31358;46.008;11.144;2024-03-08T05:54:12;6.72;;;2.53;;
45642;SDS011;31358;46.008;11.144;2024-03-08T05:56:39;4.85;;;2.33;;
45642;SDS011;31358;46.008;11.144;2024-03-08T05:59:09;4.70;;;2.63;;
45642;SDS011;31358;46.008;11.144;2024-03-08T06:01:35;5.93;;;2.78;;
45642;SDS011;31358;46.008;11.144;2024-03-08T06:04:05;5.80;;;2.72;;
45642;SDS011;31358;46.008;11.144;2024-03-08T06:06:32;5.32;;;2.13;;
45642;SDS011;31358;46.008;11.144;2024-03-08T06:08:58;4.88;;;2.20;;
45642;SDS011;31358;46.008;11.144;2024-03-08T06:11:24;4.03;;;2.03;;
45642;SDS011;31358;46.008;11.144;2024-03-08T06:13:55;4.07;;;2.10;;
45642;SDS011;31358;46.008;11.144;2024-03-08T06:16:25;3.70;;;1.83;;
45642;SDS011;31358;46.008;11.144;2024-03-08T06:18:54;3.55;;;1.90;;
45642;SDS011;31358;46.008;11.144;2024-03-08T06:21:23;4.38;;;1.52;;
45642;SDS011;31358;46.008;11.144;2024-03-08T06:23:51;3.25;;;1.70;;
45642;SDS011;31358;46.008;11.144;2024-03-08T06:26:20;5.10;;;2.55;;
45642;SDS011;31358;46.008;11.144;2024-03-08T06:28:47;7.13;;;2.58;;
45642;SDS011;31358;46.008;11.144;2024-03-08T06:31:13;5.88;;;2.75;;
45642;SDS011;31358;46.008;11.144;2024-03-08T06:33:39;4.57;;;2.38;;
45642;SDS011;31358;46.008;11.144;2024-03-08T06:36:05;5.68;;;2.78;;
45642;SDS011;31358;46.008;11.144;2024-03-08T06:38:31;5.18;;;2.33;;
45642;SDS011;31358;46.008;11.144;2024-03-08T06:40:56;5.53;;;2.90;;
45642;SDS011;31358;46.008;11.144;2024-03-08T06:43:22;4.78;;;2.30;;
45642;SDS011;31358;46.008;11.144;2024-03-08T06:45:50;6.20;;;2.78;;
45642;SDS011;31358;46.008;11.144;2024-03-08T06:48:16;4.20;;;2.30;;
45642;SDS011;31358;46.008;11.144;2024-03-08T06:50:43;4.93;;;2.53;;
45642;SDS011;31358;46.008;11.144;2024-03-08T06:53:09;3.70;;;1.75;;
45642;SDS011;31358;46.008;11.144;2024-03-08T06:55:35;4.85;;;2.08;;
45642;SDS011;31358;46.008;11.144;2024-03-08T06:58:01;4.03;;;2.00;;
45642;SDS011;31358;46.008;11.144;2024-03-08T07:00:27;3.20;;;1.65;;
45642;SDS011;31358;46.008;11.144;2024-03-08T07:02:55;4.63;;;2.20;;
45642;SDS011;31358;46.008;11.144;2024-03-08T07:05:22;4.45;;;2.35;;
45642;SDS011;31358;46.008;11.144;2024-03-08T07:07:49;4.72;;;2.53;;
45642;SDS011;31358;46.008;11.144;2024-03-08T07:10:16;5.03;;;2.72;;
45642;SDS011;31358;46.008;11.144;2024-03-08T07:12:42;3.47;;;1.75;;
45642;SDS011;31358;46.008;11.144;2024-03-08T07:15:07;5.47;;;2.15;;
45642;SDS011;31358;46.008;11.144;2024-03-08T07:17:38;5.35;;;2.40;;
45642;SDS011;31358;46.008;11.144;2024-03-08T07:20:05;4.25;;;1.98;;
45642;SDS011;31358;46.008;11.144;2024-03-08T07:22:36;4.28;;;2.38;;
45642;SDS011;31358;46.008;11.144;2024-03-08T07:25:02;4.35;;;2.15;;
45642;SDS011;31358;46.008;11.144;2024-03-08T07:27:33;4.75;;;1.90;;
45642;SDS011;31358;46.008;11.144;2024-03-08T07:30:01;3.78;;;1.77;;
45642;SDS011;31358;46.008;11.144;2024-03-08T07:32:30;5.72;;;1.88;;
45642;SDS011;31358;46.008;11.144;2024-03-08T07:34:56;2.72;;;1.27;;
45642;SDS011;31358;46.008;11.144;2024-03-08T07:37:22;2.55;;;1.17;;
45642;SDS011;31358;46.008;11.144;2024-03-08T07:39:48;3.72;;;1.25;;
45642;SDS011;31358;46.008;11.144;2024-03-08T07:42:15;2.33;;;1.10;;
45642;SDS011;31358;46.008;11.144;2024-03-08T07:44:41;2.60;;;1.30;;
45642;SDS011;31358;46.008;11.144;2024-03-08T07:47:08;1.73;;;0.80;;
45642;SDS011;31358;46.008;11.144;2024-03-08T07:49:35;3.92;;;1.38;;
45642;SDS011;31358;46.008;11.144;2024-03-08T07:52:02;2.42;;;1.10;;
45642;SDS011;31358;46.008;11.144;2024-03-08T07:54:29;2.30;;;1.08;;
45642;SDS011;31358;46.008;11.144;2024-03-08T07:56:55;1.67;;;1.00;;
45642;SDS011;31358;46.008;11.144;2024-03-08T07:59:21;3.10;;;1.35;;
45642;SDS011;31358;46.008;11.144;2024-03-08T08:01:46;3.85;;;1.60;;
45642;SDS011;31358;46.008;11.144;2024-03-08T08:04:13;2.60;;;1.05;;
45642;SDS011;31358;46.008;11.144;2024-03-08T08:06:39;2.72;;;1.10;;
45642;SDS011;31358;46.008;11.144;2024-03-08T08:09:08;1.77;;;0.80;;
45642;SDS011;31358;46.008;11.144;2024-03-08T08:11:40;3.90;;;1.55;;
45642;SDS011;31358;46.008;11.144;2024-03-08T08:14:08;2.35;;;1.00;;
45642;SDS011;31358;46.008;11.144;2024-03-08T08:16:34;2.95;;;1.42;;
45642;SDS011;31358;46.008;11.144;2024-03-08T08:19:02;2.95;;;1.30;;
45642;SDS011;31358;46.008;11.144;2024-03-08T08:21:33;2.92;;;1.10;;
45642;SDS011;31358;46.008;11.144;2024-03-08T08:23:59;2.22;;;1.00;;
45642;SDS011;31358;46.008;11.144;2024-03-08T08:26:25;1.40;;;0.77;;
45642;SDS011;31358;46.008;11.144;2024-03-08T08:28:51;2.17;;;0.70;;
45642;SDS011;31358;46.008;11.144;2024-03-08T08:31:18;1.83;;;0.90;;
45642;SDS011;31358;46.008;11.144;2024-03-08T08:33:44;2.00;;;1.00;;
45642;SDS011;31358;46.008;11.144;2024-03-08T08:36:10;3.35;;;1.02;;
45642;SDS011;31358;46.008;11.144;2024-03-08T08:38:35;3.25;;;1.92;;
45642;SDS011;31358;46.008;11.144;2024-03-08T08:41:01;2.05;;;0.90;;
45642;SDS011;31358;46.008;11.144;2024-03-08T08:43:27;2.08;;;0.93;;
45642;SDS011;31358;46.008;11.144;2024-03-08T08:45:53;1.95;;;0.80;;
45642;SDS011;31358;46.008;11.144;2024-03-08T08:48:20;3.15;;;1.25;;
45642;SDS011;31358;46.008;11.144;2024-03-08T08:50:46;1.55;;;0.75;;
45642;SDS011;31358;46.008;11.144;2024-03-08T08:53:12;2.92;;;1.08;;
45642;SDS011;31358;46.008;11.144;2024-03-08T08:55:40;2.33;;;1.00;;
45642;SDS011;31358;46.008;11.144;2024-03-08T08:58:05;2.35;;;1.08;;
45642;SDS011;31358;46.008;11.144;2024-03-08T09:00:32;2.28;;;0.93;;
45642;SDS011;31358;46.008;11.144;2024-03-08T09:02:59;3.38;;;1.38;;
45642;SDS011;31358;46.008;11.144;2024-03-08T09:05:27;8.18;;;4.55;;
45642;SDS011;31358;46.008;11.144;2024-03-08T09:07:52;6.47;;;3.30;;
45642;SDS011;31358;46.008;11.144;2024-03-08T09:10:18;4.07;;;1.77;;
45642;SDS011;31358;46.008;11.144;2024-03-08T09:12:44;3.13;;;1.23;;
45642;SDS011;31358;46.008;11.144;2024-03-08T09:15:10;4.20;;;1.50;;
45642;SDS011;31358;46.008;11.144;2024-03-08T09:17:39;4.47;;;1.95;;
45642;SDS011;31358;46.008;11.144;2024-03-08T09:20:06;3.45;;;1.75;;
45642;SDS011;31358;46.008;11.144;2024-03-08T09:22:32;3.05;;;1.48;;
45642;SDS011;31358;46.008;11.144;2024-03-08T09:24:58;4.05;;;1.85;;
45642;SDS011;31358;46.008;11.144;2024-03-08T09:27:23;3.10;;;1.55;;
45642;SDS011;31358;46.008;11.144;2024-03-08T09:29:49;4.72;;;1.70;;
45642;SDS011;31358;46.008;11.144;2024-03-08T09:32:14;3.47;;;1.38;;
45642;SDS011;31358;46.008;11.144;2024-03-08T09:34:40;3.38;;;1.48;;
45642;SDS011;31358;46.008;11.144;2024-03-08T09:37:06;3.38;;;1.70;;
45642;SDS011;31358;46.008;11.144;2024-03-08T09:39:31;4.50;;;1.83;;
45642;SDS011;31358;46.008;11.144;2024-03-08T09:41:58;3.25;;;1.48;;
45642;SDS011;31358;46.008;11.144;2024-03-08T09:44:24;3.47;;;1.60;;
45642;SDS011;31358;46.008;11.144;2024-03-08T09:46:50;3.20;;;1.48;;
45642;SDS011;31358;46.008;11.144;2024-03-08T09:49:18;2.65;;;1.38;;
45642;SDS011;31358;46.008;11.144;2024-03-08T09:51:44;3.35;;;1.70;;
45642;SDS011;31358;46.008;11.144;2024-03-08T09:54:11;4.32;;;1.48;;
45642;SDS011;31358;46.008;11.144;2024-03-08T09:56:37;5.75;;;2.08;;
45642;SDS011;31358;46.008;11.144;2024-03-08T09:59:06;4.15;;;1.95;;
45642;SDS011;31358;46.008;11.144;2024-03-08T10:01:50;3.30;;;1.67;;
45642;SDS011;31358;46.008;11.144;2024-03-08T10:04:23;3.83;;;1.85;;
45642;SDS011;31358;46.008;11.144;2024-03-08T10:06:49;3.83;;;1.67;;
45642;SDS011;31358;46.008;11.144;2024-03-08T10:09:15;4.63;;;1.73;;
45642;SDS011;31358;46.008;11.144;2024-03-08T10:11:41;4.32;;;2.17;;
45642;SDS011;31358;46.008;11.144;2024-03-08T10:14:08;3.78;;;2.38;;
45642;SDS011;31358;46.008;11.144;2024-03-08T10:16:34;4.10;;;1.95;;
45642;SDS011;31358;46.008;11.144;2024-03-08T10:19:00;3.78;;;1.55;;
45642;SDS011;31358;46.008;11.144;2024-03-08T10:21:26;3.80;;;1.50;;
45642;SDS011;31358;46.008;11.144;2024-03-08T10:23:52;4.00;;;1.60;;
45642;SDS011;31358;46.008;11.144;2024-03-08T10:26:18;3.92;;;1.77;;
45642;SDS011;31358;46.008;11.144;2024-03-08T10:28:51;3.45;;;1.70;;
45642;SDS011;31358;46.008;11.144;2024-03-08T10:31:20;3.25;;;1.60;;
45642;SDS011;31358;46.008;11.144;2024-03-08T10:33:46;5.35;;;1.88;;
45642;SDS011;31358;46.008;11.144;2024-03-08T10:36:12;4.03;;;1.73;;
45642;SDS011;31358;46.008;11.144;2024-03-08T10:38:40;3.92;;;1.90;;
45642;SDS011;31358;46.008;11.144;2024-03-08T10:41:07;4.13;;;2.17;;
45642;SDS011;31358;46.008;11.144;2024-03-08T10:43:57;4.45;;;2.42;;
45642;SDS011;31358;46.008;11.144;2024-03-08T10:49:01;3.15;;;1.70;;
45642;SDS011;31358;46.008;11.144;2024-03-08T10:51:31;3.67;;;1.98;;
45642;SDS011;31358;46.008;11.144;2024-03-08T10:53:57;3.88;;;2.13;;
45642;SDS011;31358;46.008;11.144;2024-03-08T10:56:25;4.53;;;1.98;;
45642;SDS011;31358;46.008;11.144;2024-03-08T10:58:53;4.18;;;2.13;;
45642;SDS011;31358;46.008;11.144;2024-03-08T11:01:20;5.07;;;2.83;;
45642;SDS011;31358;46.008;11.144;2024-03-08T11:03:47;6.28;;;2.33;;
45642;SDS011;31358;46.008;11.144;2024-03-08T11:06:31;5.65;;;2.10;;
45642;SDS011;31358;46.008;11.144;2024-03-08T11:14:43;5.40;;;2.13;;
45642;SDS011;31358;46.008;11.144;2024-03-08T11:17:13;4.35;;;2.33;;
45642;SDS011;31358;46.008;11.144;2024-03-08T11:19:38;6.45;;;2.75;;
45642;SDS011;31358;46.008;11.144;2024-03-08T11:22:19;4.13;;;2.42;;
45642;SDS011;31358;46.008;11.144;2024-03-08T11:24:49;4.03;;;1.92;;
45642;SDS011;31358;46.008;11.144;2024-03-08T11:27:15;7.68;;;2.70;;
45642;SDS011;31358;46.008;11.144;2024-03-08T11:29:41;4.60;;;2.08;;
45642;SDS011;31358;46.008;11.144;2024-03-08T11:32:07;5.03;;;2.55;;
45642;SDS011;31358;46.008;11.144;2024-03-08T11:34:38;5.00;;;2.30;;
45642;SDS011;31358;46.008;11.144;2024-03-08T11:37:10;3.08;;;1.55;;
45642;SDS011;31358;46.008;11.144;2024-03-08T11:39:41;4.28;;;2.00;;
45642;SDS011;31358;46.008;11.144;2024-03-08T11:42:23;6.50;;;2.80;;
45642;SDS011;31358;46.008;11.144;2024-03-08T11:44:51;5.20;;;2.45;;
45642;SDS011;31358;46.008;11.144;2024-03-08T11:47:18;5.38;;;2.50;;
45642;SDS011;31358;46.008;11.144;2024-03-08T11:49:44;4.43;;;2.17;;
45642;SDS011;31358;46.008;11.144;2024-03-08T11:52:16;3.75;;;2.10;;
45642;SDS011;31358;46.008;11.144;2024-03-08T11:54:47;5.95;;;2.25;;
45642;SDS011;31358;46.008;11.144;2024-03-08T11:57:22;4.05;;;2.08;;
45642;SDS011;31358;46.008;11.144;2024-03-08T11:59:49;4.63;;;2.30;;
45642;SDS011;31358;46.008;11.144;2024-03-08T12:02:19;4.55;;;2.47;;
45642;SDS011;31358;46.008;11.144;2024-03-08T12:04:44;4.00;;;2.20;;
45642;SDS011;31358;46.008;11.144;2024-03-08T12:07:14;5.85;;;2.55;;
45642;SDS011;31358;46.008;11.144;2024-03-08T12:09:43;9.35;;;3.15;;
45642;SDS011;31358;46.008;11.144;2024-03-08T12:12:30;4.90;;;2.28;;
45642;SDS011;31358;46.008;11.144;2024-03-08T12:14:57;5.10;;;2.97;;
45642;SDS011;31358;46.008;11.144;2024-03-08T12:17:23;4.65;;;2.55;;
45642;SDS011;31358;46.008;11.144;2024-03-08T12:19:49;4.82;;;2.35;;
45642;SDS011;31358;46.008;11.144;2024-03-08T12:22:14;5.88;;;2.83;;
45642;SDS011;31358;46.008;11.144;2024-03-08T12:24:40;6.03;;;2.95;;
45642;SDS011;31358;46.008;11.144;2024-03-08T12:27:19;5.22;;;2.28;;
45642;SDS011;31358;46.008;11.144;2024-03-08T12:29:45;4.78;;;2.63;;
45642;SDS011;31358;46.008;11.144;2024-03-08T12:32:12;4.50;;;2.35;;
45642;SDS011;31358;46.008;11.144;2024-03-08T12:34:37;4.72;;;2.50;;
45642;SDS011;31358;46.008;11.144;2024-03-08T12:37:03;7.22;;;4.03;;
45642;SDS011;31358;46.008;11.144;2024-03-08T12:39:32;5.15;;;2.80;;
45642;SDS011;31358;46.008;11.144;2024-03-08T12:41:58;4.40;;;2.22;;
45642;SDS011;31358;46.008;11.144;2024-03-08T12:44:24;4.78;;;2.42;;
45642;SDS011;31358;46.008;11.144;2024-03-08T12:46:51;5.13;;;2.72;;
45642;SDS011;31358;46.008;11.144;2024-03-08T12:49:18;4.15;;;2.00;;
45642;SDS011;31358;46.008;11.144;2024-03-08T12:51:47;4.90;;;2.33;;
45642;SDS011;31358;46.008;11.144;2024-03-08T12:54:13;3.58;;;1.77;;
45642;SDS011;31358;46.008;11.144;2024-03-08T12:56:39;4.20;;;2.10;;
45642;SDS011;31358;46.008;11.144;2024-03-08T12:59:05;3.90;;;2.08;;
45642;SDS011;31358;46.008;11.144;2024-03-08T13:01:35;4.03;;;2.17;;
45642;SDS011;31358;46.008;11.144;2024-03-08T13:04:04;4.32;;;2.33;;
45642;SDS011;31358;46.008;11.144;2024-03-08T13:06:31;3.67;;;2.05;;
45642;SDS011;31358;46.008;11.144;2024-03-08T13:08:57;5.30;;;2.20;;
45642;SDS011;31358;46.008;11.144;2024-03-08T13:11:24;4.75;;;2.33;;
45642;SDS011;31358;46.008;11.144;2024-03-08T13:13:50;5.60;;;2.42;;
45642;SDS011;31358;46.008;11.144;2024-03-08T13:16:17;6.43;;;2.80;;
45642;SDS011;31358;46.008;11.144;2024-03-08T13:18:44;3.33;;;1.95;;
45642;SDS011;31358;46.008;11.144;2024-03-08T13:21:10;3.22;;;1.90;;
45642;SDS011;31358;46.008;11.144;2024-03-08T13:23:39;2.97;;;1.50;;
45642;SDS011;31358;46.008;11.144;2024-03-08T13:26:06;4.60;;;2.33;;
45642;SDS011;31358;46.008;11.144;2024-03-08T13:28:32;3.72;;;1.73;;
45642;SDS011;31358;46.008;11.144;2024-03-08T13:31:02;6.63;;;2.45;;
45642;SDS011;31358;46.008;11.144;2024-03-08T13:33:31;3.63;;;1.67;;
45642;SDS011;31358;46.008;11.144;2024-03-08T13:36:00;3.90;;;2.08;;
45642;SDS011;31358;46.008;11.144;2024-03-08T13:38:27;3.47;;;1.60;;
45642;SDS011;31358;46.008;11.144;2024-03-08T13:40:53;3.33;;;1.60;;
45642;SDS011;31358;46.008;11.144;2024-03-08T13:43:18;4.55;;;2.05;;
45642;SDS011;31358;46.008;11.144;2024-03-08T13:45:44;5.93;;;1.95;;
45642;SDS011;31358;46.008;11.144;2024-03-08T13:48:11;4.60;;;2.10;;
45642;SDS011;31358;46.008;11.144;2024-03-08T13:50:38;3.28;;;1.45;;
45642;SDS011;31358;46.008;11.144;2024-03-08T13:53:04;6.93;;;2.20;;
45642;SDS011;31358;46.008;11.144;2024-03-08T13:55:30;4.30;;;2.03;;
45642;SDS011;31358;46.008;11.144;2024-03-08T13:57:56;2.92;;;1.50;;
45642;SDS011;31358;46.008;11.144;2024-03-08T14:00:22;3.30;;;1.77;;
45642;SDS011;31358;46.008;11.144;2024-03-08T14:02:49;2.25;;;1.45;;
45642;SDS011;31358;46.008;11.144;2024-03-08T14:05:15;2.30;;;1.17;;
45642;SDS011;31358;46.008;11.144;2024-03-08T14:07:41;4.00;;;1.88;;
45642;SDS011;31358;46.008;11.144;2024-03-08T14:10:07;3.88;;;1.63;;
45642;SDS011;31358;46.008;11.144;2024-03-08T14:12:34;2.95;;;1.33;;
45642;SDS011;31358;46.008;11.144;2024-03-08T14:15:01;2.00;;;1.10;;
45642;SDS011;31358;46.008;11.144;2024-03-08T14:17:26;2.58;;;1.20;;
45642;SDS011;31358;46.008;11.144;2024-03-08T14:19:56;3.05;;;1.25;;
45642;SDS011;31358;46.008;11.144;2024-03-08T14:22:21;2.13;;;1.10;;
45642;SDS011;31358;46.008;11.144;2024-03-08T14:24:48;2.45;;;1.30;;
45642;SDS011;31358;46.008;11.144;2024-03-08T14:27:14;1.85;;;0.80;;
45642;SDS011;31358;46.008;11.144;2024-03-08T14:29:42;2.95;;;1.10;;
45642;SDS011;31358;46.008;11.144;2024-03-08T14:32:08;2.28;;;1.10;;
45642;SDS011;31358;46.008;11.144;2024-03-08T14:34:35;3.15;;;1.70;;
45642;SDS011;31358;46.008;11.144;2024-03-08T14:37:01;2.58;;;1.15;;
45642;SDS011;31358;46.008;11.144;2024-03-08T14:39:31;2.33;;;1.20;;